Time,TemperatureF,DewpointF,PressureIn,WindDirection,WindDirectionDegrees,WindSpeedMPH,WindSpeedGustMPH,Humidity,HourlyPrecipIn,Conditions,Clouds,dailyrainin,SoftwareType,DateUTC
2013-09-22 00:01:00,39.7,32.5,31.75,SW,225,0.0,2.0,75,0.00,,,0.00,meteohub,2013-09-22 06:01:00,
2013-09-22 00:06:00,39.7,32.5,31.74,SW,225,0.0,2.0,75,0.00,,,0.00,meteohub,2013-09-22 06:06:00,
2013-09-22 00:12:00,40.1,33.1,31.74,SW,225,2.0,2.0,76,0.00,,,0.00,meteohub,2013-09-22 06:12:00,
2013-09-22 00:17:00,40.6,33.6,31.74,SW,225,2.0,2.0,76,0.00,,,0.00,meteohub,2013-09-22 06:17:00,
2013-09-22 00:22:00,41.2,33.8,31.74,West,270,2.0,2.0,75,0.00,,,0.00,meteohub,2013-09-22 06:22:00,
2013-09-22 00:27:00,41.5,34.2,31.74,SW,225,2.0,2.0,75,0.00,,,0.00,meteohub,2013-09-22 06:27:00,
2013-09-22 00:32:00,41.7,34.3,31.74,West,270,1.0,2.0,75,0.00,,,0.00,meteohub,2013-09-22 06:32:00,
2013-09-22 00:37:00,41.7,34.0,31.74,West,270,2.0,2.0,74,0.00,,,0.00,meteohub,2013-09-22 06:37:00,
2013-09-22 00:42:00,41.9,34.5,31.74,West,270,2.0,2.0,75,0.00,,,0.00,meteohub,2013-09-22 06:42:00,
2013-09-22 00:47:00,42.1,34.7,31.74,NW,315,1.0,2.0,75,0.00,,,0.00,meteohub,2013-09-22 06:47:00,
2013-09-22 00:52:00,42.3,34.9,31.73,SE,135,2.0,2.0,75,0.00,,,0.00,meteohub,2013-09-22 06:52:00,
2013-09-22 00:57:00,42.4,35.1,31.73,SE,135,1.0,2.0,75,0.00,,,0.00,meteohub,2013-09-22 06:57:00,
2013-09-22 01:02:00,42.6,35.2,31.73,NE,45,0.0,2.0,75,0.00,,,0.00,meteohub,2013-09-22 07:02:00,
2013-09-22 01:07:00,42.6,34.9,31.73,NE,45,1.0,2.0,74,0.00,,,0.00,meteohub,2013-09-22 07:07:00,
2013-09-22 01:12:00,42.1,34.3,31.73,NW,315,2.0,2.0,74,0.00,,,0.00,meteohub,2013-09-22 07:12:00,
2013-09-22 01:17:00,41.0,33.4,31.73,SE,135,2.0,3.0,74,0.00,,,0.00,meteohub,2013-09-22 07:17:00,
2013-09-22 01:22:00,40.3,33.1,31.73,SW,225,2.0,3.0,75,0.00,,,0.00,meteohub,2013-09-22 07:22:00,
2013-09-22 01:27:00,39.6,32.5,31.73,SW,225,2.0,3.0,76,0.00,,,0.00,meteohub,2013-09-22 07:27:00,
2013-09-22 01:32:00,39.0,32.7,31.73,SE,135,0.0,3.0,78,0.00,,,0.00,meteohub,2013-09-22 07:32:00,
2013-09-22 01:37:00,38.5,32.5,31.73,SE,135,0.0,3.0,79,0.00,,,0.00,meteohub,2013-09-22 07:37:00,
2013-09-22 01:42:00,38.1,32.5,31.72,South,180,2.0,3.0,80,0.00,,,0.00,meteohub,2013-09-22 07:42:00,
2013-09-22 01:47:00,37.9,32.4,31.72,South,180,2.0,2.0,80,0.00,,,0.00,meteohub,2013-09-22 07:47:00,
2013-09-22 01:52:00,37.8,32.5,31.73,West,270,2.0,2.0,81,0.00,,,0.00,meteohub,2013-09-22 07:52:00,
2013-09-22 01:57:00,37.8,32.5,31.72,NW,315,2.0,2.0,81,0.00,,,0.00,meteohub,2013-09-22 07:57:00,
2013-09-22 02:02:00,37.8,32.7,31.73,South,180,2.0,2.0,82,0.00,,,0.00,meteohub,2013-09-22 08:02:00,
2013-09-22 02:07:00,37.8,32.7,31.73,South,180,2.0,2.0,82,0.00,,,0.00,meteohub,2013-09-22 08:07:00,
2013-09-22 02:12:00,37.6,32.5,31.73,SW,225,2.0,2.0,82,0.00,,,0.00,meteohub,2013-09-22 08:12:00,
2013-09-22 02:17:00,37.6,32.5,31.73,South,180,2.0,3.0,82,0.00,,,0.00,meteohub,2013-09-22 08:17:00,
2013-09-22 02:22:00,37.9,33.3,31.72,SE,135,3.0,3.0,83,0.00,,,0.00,meteohub,2013-09-22 08:22:00,
2013-09-22 02:27:00,37.8,33.1,31.72,SW,225,2.0,3.0,83,0.00,,,0.00,meteohub,2013-09-22 08:27:00,
2013-09-22 02:32:00,37.4,32.7,31.72,NW,315,1.0,3.0,83,0.00,,,0.00,meteohub,2013-09-22 08:32:00,
2013-09-22 02:37:00,37.0,31.1,31.72,South,180,1.0,3.0,79,0.00,,,0.00,meteohub,2013-09-22 08:37:00,
2013-09-22 02:42:00,36.9,30.9,31.72,South,180,2.0,2.0,79,0.00,,,0.00,meteohub,2013-09-22 08:42:00,
2013-09-22 02:47:00,36.7,31.1,31.72,South,180,1.0,2.0,80,0.00,,,0.00,meteohub,2013-09-22 08:47:00,
2013-09-22 02:52:00,36.5,30.9,31.72,South,180,2.0,2.0,80,0.00,,,0.00,meteohub,2013-09-22 08:52:00,
2013-09-22 02:57:00,36.5,31.3,31.72,South,180,0.0,2.0,81,0.00,,,0.00,meteohub,2013-09-22 08:57:00,
2013-09-22 03:02:00,36.5,31.3,31.71,SW,225,1.0,2.0,81,0.00,,,0.00,meteohub,2013-09-22 09:02:00,
2013-09-22 03:07:00,37.0,32.0,31.72,West,270,2.0,2.0,82,0.00,,,0.00,meteohub,2013-09-22 09:07:00,
2013-09-22 03:12:00,37.4,33.6,31.72,West,270,2.0,2.0,86,0.00,,,0.00,meteohub,2013-09-22 09:12:00,
2013-09-22 03:17:00,37.8,34.0,31.72,North,0,1.0,2.0,86,0.00,,,0.00,meteohub,2013-09-22 09:17:00,
2013-09-22 03:22:00,38.1,34.3,31.71,North,0,0.0,2.0,86,0.00,,,0.00,meteohub,2013-09-22 09:22:00,
2013-09-22 03:27:00,38.3,34.5,31.72,West,270,1.0,2.0,86,0.00,,,0.00,meteohub,2013-09-22 09:27:00,
2013-09-22 03:32:00,38.7,34.9,31.72,NE,45,2.0,2.0,86,0.00,,,0.00,meteohub,2013-09-22 09:32:00,
2013-09-22 03:37:00,39.0,35.2,31.72,South,180,2.0,2.0,86,0.00,,,0.00,meteohub,2013-09-22 09:37:00,
2013-09-22 03:42:00,39.2,35.1,31.72,South,180,0.0,2.0,85,0.00,,,0.00,meteohub,2013-09-22 09:42:00,
2013-09-22 03:47:00,39.4,34.9,31.72,South,180,2.0,2.0,84,0.00,,,0.00,meteohub,2013-09-22 09:47:00,
2013-09-22 03:52:00,39.4,34.9,31.71,NE,45,2.0,2.0,84,0.00,,,0.00,meteohub,2013-09-22 09:52:00,
2013-09-22 03:57:00,39.4,34.9,31.71,NW,315,2.0,2.0,84,0.00,,,0.00,meteohub,2013-09-22 09:57:00,
2013-09-22 04:02:00,39.2,34.7,31.71,West,270,2.0,3.0,84,0.00,,,0.00,meteohub,2013-09-22 10:02:00,
2013-09-22 04:07:00,39.2,34.7,31.71,West,270,2.0,3.0,84,0.00,,,0.00,meteohub,2013-09-22 10:07:00,
2013-09-22 04:12:00,38.1,34.0,31.71,SW,225,2.0,2.0,85,0.00,,,0.00,meteohub,2013-09-22 10:12:00,
2013-09-22 04:17:00,37.6,33.8,31.71,SW,225,2.0,2.0,86,0.00,,,0.00,meteohub,2013-09-22 10:17:00,
2013-09-22 04:22:00,37.4,33.6,31.71,SW,225,2.0,4.0,86,0.00,,,0.00,meteohub,2013-09-22 10:22:00,
2013-09-22 04:27:00,37.2,32.2,31.71,South,180,2.0,4.0,82,0.00,,,0.00,meteohub,2013-09-22 10:27:00,
2013-09-22 04:32:00,37.4,33.8,31.71,SW,225,0.0,4.0,87,0.00,,,0.00,meteohub,2013-09-22 10:32:00,
2013-09-22 04:37:00,37.4,33.8,31.71,SW,225,2.0,2.0,87,0.00,,,0.00,meteohub,2013-09-22 10:37:00,
2013-09-22 04:42:00,37.6,34.0,31.70,SW,225,1.0,2.0,87,0.00,,,0.00,meteohub,2013-09-22 10:42:00,
2013-09-22 04:47:00,37.8,34.2,31.71,SW,225,2.0,2.0,87,0.00,,,0.00,meteohub,2013-09-22 10:47:00,
2013-09-22 04:52:00,37.8,34.2,31.70,NW,315,2.0,2.0,87,0.00,,,0.00,meteohub,2013-09-22 10:52:00,
2013-09-22 04:57:00,37.4,33.8,31.70,North,0,0.0,2.0,87,0.00,,,0.00,meteohub,2013-09-22 10:57:00,
2013-09-22 05:02:00,37.2,32.5,31.70,South,180,2.0,2.0,83,0.00,,,0.00,meteohub,2013-09-22 11:02:00,
2013-09-22 05:07:00,37.0,32.4,31.70,South,180,1.0,2.0,83,0.00,,,0.00,meteohub,2013-09-22 11:07:00,
2013-09-22 05:12:00,36.7,32.0,31.70,South,180,0.0,2.0,83,0.00,,,0.00,meteohub,2013-09-22 11:12:00,
2013-09-22 05:17:00,36.7,32.4,31.70,SW,225,2.0,2.0,84,0.00,,,0.00,meteohub,2013-09-22 11:17:00,
2013-09-22 05:22:00,36.7,32.4,31.70,SW,225,2.0,2.0,84,0.00,,,0.00,meteohub,2013-09-22 11:22:00,
2013-09-22 05:27:00,36.5,32.2,31.70,West,270,1.0,2.0,84,0.00,,,0.00,meteohub,2013-09-22 11:27:00,
2013-09-22 05:32:00,36.5,32.4,31.70,SE,135,0.0,2.0,85,0.00,,,0.00,meteohub,2013-09-22 11:32:00,
2013-09-22 05:37:00,36.7,32.5,31.70,North,0,2.0,2.0,85,0.00,,,0.00,meteohub,2013-09-22 11:37:00,
2013-09-22 05:42:00,36.7,32.5,31.70,SW,225,2.0,2.0,85,0.00,,,0.00,meteohub,2013-09-22 11:42:00,
2013-09-22 05:47:00,36.7,32.5,31.70,SW,225,2.0,2.0,85,0.00,,,0.00,meteohub,2013-09-22 11:47:00,
2013-09-22 05:52:00,36.5,32.4,31.70,NE,45,1.0,2.0,85,0.00,,,0.00,meteohub,2013-09-22 11:52:00,
2013-09-22 05:57:00,36.3,32.2,31.70,South,180,2.0,2.0,85,0.00,,,0.00,meteohub,2013-09-22 11:57:00,
2013-09-22 06:02:00,36.3,32.2,31.70,South,180,0.0,2.0,85,0.00,,,0.00,meteohub,2013-09-22 12:02:00,
2013-09-22 06:07:00,36.3,32.2,31.70,South,180,0.0,2.0,85,0.00,,,0.00,meteohub,2013-09-22 12:07:00,
2013-09-22 06:12:00,35.8,31.6,31.70,SW,225,1.0,2.0,85,0.00,,,0.00,meteohub,2013-09-22 12:12:00,
2013-09-22 06:17:00,35.8,32.0,31.70,West,270,4.0,4.0,86,0.00,,,0.00,meteohub,2013-09-22 12:17:00,
2013-09-22 06:22:00,36.0,32.2,31.70,NE,45,0.0,4.0,86,0.00,,,0.00,meteohub,2013-09-22 12:22:00,
2013-09-22 06:27:00,36.1,32.4,31.70,North,0,3.0,4.0,86,0.00,,,0.00,meteohub,2013-09-22 12:27:00,
2013-09-22 06:32:00,36.1,32.7,31.70,West,270,2.0,4.0,87,0.00,,,0.00,meteohub,2013-09-22 12:32:00,
2013-09-22 06:37:00,36.1,32.7,31.70,West,270,4.0,4.0,87,0.00,,,0.00,meteohub,2013-09-22 12:37:00,
2013-09-22 06:42:00,36.3,33.1,31.70,NE,45,2.0,4.0,88,0.00,,,0.00,meteohub,2013-09-22 12:42:00,
2013-09-22 06:47:00,36.3,33.1,31.70,NE,45,2.0,4.0,88,0.00,,,0.00,meteohub,2013-09-22 12:47:00,
2013-09-22 06:52:00,36.7,33.8,31.71,West,270,2.0,4.0,89,0.00,,,0.00,meteohub,2013-09-22 12:52:00,
2013-09-22 06:57:00,37.0,34.3,31.70,West,270,0.0,2.0,90,0.00,,,0.00,meteohub,2013-09-22 12:57:00,
2013-09-22 07:02:00,37.4,35.8,31.70,SW,225,2.0,2.0,94,0.00,,,0.00,meteohub,2013-09-22 13:02:00,
2013-09-22 07:07:00,37.6,36.0,31.71,SW,225,2.0,2.0,94,0.00,,,0.00,meteohub,2013-09-22 13:07:00,
2013-09-22 07:13:00,37.9,36.3,31.70,East,90,1.0,2.0,94,0.00,,,0.00,meteohub,2013-09-22 13:13:00,
2013-09-22 07:18:00,38.3,36.7,31.70,SW,225,2.0,2.0,94,0.00,,,0.00,meteohub,2013-09-22 13:18:00,
2013-09-22 07:23:00,38.8,37.2,31.70,West,270,0.0,2.0,94,0.00,,,0.00,meteohub,2013-09-22 13:23:00,
2013-09-22 07:28:00,39.2,37.4,31.70,SE,135,1.0,3.0,93,0.00,,,0.00,meteohub,2013-09-22 13:28:00,
2013-09-22 07:33:00,39.6,37.8,31.70,SE,135,0.0,3.0,93,0.00,,,0.00,meteohub,2013-09-22 13:33:00,
2013-09-22 07:39:00,39.9,38.1,31.70,North,0,2.0,3.0,93,0.00,,,0.00,meteohub,2013-09-22 13:39:00,
2013-09-22 07:44:00,40.3,38.5,31.70,SE,135,2.0,2.0,93,0.00,,,0.00,meteohub,2013-09-22 13:44:00,
2013-09-22 07:49:00,40.3,38.1,31.70,SE,135,0.0,2.0,92,0.00,,,0.00,meteohub,2013-09-22 13:49:00,
2013-09-22 07:54:00,40.3,37.9,31.70,NE,45,2.0,2.0,91,0.00,,,0.00,meteohub,2013-09-22 13:54:00,
2013-09-22 07:59:00,40.6,38.3,31.70,West,270,1.0,2.0,91,0.00,,,0.00,meteohub,2013-09-22 13:59:00,
2013-09-22 08:04:00,40.6,38.3,31.70,West,270,1.0,3.0,91,0.00,,,0.00,meteohub,2013-09-22 14:04:00,
2013-09-22 08:10:00,41.5,38.3,31.70,East,90,1.0,3.0,88,0.00,,,0.00,meteohub,2013-09-22 14:10:00,
2013-09-22 08:15:00,41.7,38.5,31.70,SE,135,2.0,2.0,88,0.00,,,0.00,meteohub,2013-09-22 14:15:00,
2013-09-22 08:20:00,42.3,39.0,31.70,North,0,2.0,2.0,88,0.00,,,0.00,meteohub,2013-09-22 14:20:00,
2013-09-22 08:25:00,42.6,39.4,31.70,North,0,2.0,2.0,88,0.00,,,0.00,meteohub,2013-09-22 14:25:00,
2013-09-22 08:30:00,42.8,38.7,31.70,NW,315,2.0,2.0,85,0.00,,,0.00,meteohub,2013-09-22 14:30:00,
2013-09-22 08:36:00,42.8,38.3,31.70,NE,45,2.0,2.0,84,0.00,,,0.00,meteohub,2013-09-22 14:36:00,
2013-09-22 08:41:00,42.6,38.5,31.70,NE,45,2.0,3.0,85,0.00,,,0.00,meteohub,2013-09-22 14:41:00,
2013-09-22 08:46:00,42.8,37.9,31.70,SE,135,2.0,3.0,83,0.00,,,0.00,meteohub,2013-09-22 14:46:00,
2013-09-22 08:51:00,42.8,37.9,31.70,West,270,1.0,2.0,83,0.00,,,0.00,meteohub,2013-09-22 14:51:00,
2013-09-22 08:56:00,42.8,37.9,31.70,West,270,2.0,2.0,83,0.00,,,0.00,meteohub,2013-09-22 14:56:00,
2013-09-22 09:01:00,43.0,38.1,31.70,West,270,3.0,3.0,83,0.00,,,0.00,meteohub,2013-09-22 15:01:00,
2013-09-22 09:07:00,43.0,38.1,31.71,West,270,2.0,3.0,83,0.00,,,0.00,meteohub,2013-09-22 15:07:00,
2013-09-22 09:12:00,43.2,38.7,31.71,SW,225,1.0,3.0,84,0.00,,,0.00,meteohub,2013-09-22 15:12:00,
2013-09-22 09:17:00,43.3,38.8,31.71,SE,135,2.0,3.0,84,0.00,,,0.00,meteohub,2013-09-22 15:17:00,
2013-09-22 09:22:00,43.3,39.2,31.71,SE,135,0.0,3.0,85,0.00,,,0.00,meteohub,2013-09-22 15:22:00,
2013-09-22 09:27:00,43.3,39.4,31.71,NE,45,3.0,3.0,86,0.01,,,0.01,meteohub,2013-09-22 15:27:00,
2013-09-22 09:32:00,43.2,39.6,31.71,NE,45,1.0,3.0,87,0.01,,,0.01,meteohub,2013-09-22 15:32:00,
2013-09-22 09:37:00,43.2,40.1,31.71,East,90,2.0,3.0,89,0.01,,,0.01,meteohub,2013-09-22 15:37:00,
2013-09-22 09:42:00,43.2,40.5,31.71,North,0,2.0,3.0,90,0.01,,,0.01,meteohub,2013-09-22 15:42:00,
2013-09-22 09:47:00,43.0,40.5,31.72,NE,45,2.0,2.0,91,0.01,,,0.01,meteohub,2013-09-22 15:47:00,
2013-09-22 09:52:00,42.8,40.6,31.71,NE,45,3.0,3.0,92,0.01,,,0.01,meteohub,2013-09-22 15:52:00,
2013-09-22 09:57:00,42.6,40.8,31.71,NE,45,1.0,3.0,93,0.02,,,0.02,meteohub,2013-09-22 15:57:00,
2013-09-22 10:02:00,42.8,40.6,31.71,SE,135,0.0,3.0,92,0.02,,,0.02,meteohub,2013-09-22 16:02:00,
2013-09-22 10:07:00,42.8,40.6,31.72,SE,135,0.0,3.0,92,0.04,,,0.04,meteohub,2013-09-22 16:07:00,
2013-09-22 10:12:00,43.3,41.5,31.72,SE,135,2.0,2.0,93,0.04,,,0.04,meteohub,2013-09-22 16:12:00,
2013-09-22 10:17:00,43.3,41.5,31.72,SW,225,1.0,2.0,93,0.04,,,0.04,meteohub,2013-09-22 16:17:00,
2013-09-22 10:22:00,43.3,41.5,31.72,SW,225,0.0,2.0,93,0.04,,,0.04,meteohub,2013-09-22 16:22:00,
2013-09-22 10:27:00,43.5,41.9,31.71,NW,315,2.0,2.0,94,0.02,,,0.04,meteohub,2013-09-22 16:27:00,
2013-09-22 10:32:00,43.7,42.1,31.71,NW,315,2.0,2.0,94,0.02,,,0.04,meteohub,2013-09-22 16:32:00,
2013-09-22 10:37:00,43.9,42.6,31.70,West,270,3.0,4.0,95,0.02,,,0.04,meteohub,2013-09-22 16:37:00,
2013-09-22 10:42:00,44.1,42.8,31.70,West,270,2.0,4.0,95,0.02,,,0.04,meteohub,2013-09-22 16:42:00,
2013-09-22 10:47:00,44.4,43.2,31.70,NE,45,2.0,4.0,95,0.02,,,0.04,meteohub,2013-09-22 16:47:00,
2013-09-22 10:52:00,45.0,43.0,31.69,NW,315,1.0,3.0,93,0.02,,,0.04,meteohub,2013-09-22 16:52:00,
2013-09-22 10:57:00,45.9,44.2,31.70,SE,135,4.0,4.0,94,0.01,,,0.04,meteohub,2013-09-22 16:57:00,
2013-09-22 11:02:00,46.9,45.0,31.69,South,180,3.0,4.0,93,0.00,,,0.04,meteohub,2013-09-22 17:02:00,
2013-09-22 11:07:00,48.7,46.6,31.69,SW,225,4.0,4.0,92,0.00,,,0.04,meteohub,2013-09-22 17:07:00,
2013-09-22 11:12:00,49.1,45.7,31.68,NW,315,2.0,4.0,88,0.00,,,0.04,meteohub,2013-09-22 17:12:00,
2013-09-22 11:17:00,49.6,45.9,31.68,NW,315,2.0,4.0,87,0.00,,,0.04,meteohub,2013-09-22 17:17:00,
2013-09-22 11:22:00,50.5,46.2,31.68,SSE,158,3.0,4.0,85,0.00,,,0.04,meteohub,2013-09-22 17:22:00,
2013-09-22 11:27:00,50.7,46.0,31.68,SE,135,4.0,4.0,84,0.00,,,0.04,meteohub,2013-09-22 17:27:00,
2013-09-22 11:32:00,51.1,46.0,31.67,South,180,3.0,5.0,83,0.00,,,0.04,meteohub,2013-09-22 17:32:00,
2013-09-22 11:37:00,51.4,45.1,31.67,South,180,4.0,6.0,79,0.00,,,0.04,meteohub,2013-09-22 17:37:00,
2013-09-22 11:42:00,51.4,44.1,31.66,SE,135,2.0,6.0,76,0.00,,,0.04,meteohub,2013-09-22 17:42:00,
2013-09-22 11:47:00,51.3,43.9,31.67,SE,135,2.0,6.0,76,0.00,,,0.04,meteohub,2013-09-22 17:47:00,
2013-09-22 11:52:00,51.3,43.9,31.67,NW,315,1.0,5.0,76,0.00,,,0.04,meteohub,2013-09-22 17:52:00,
2013-09-22 11:57:00,51.6,44.6,31.66,North,0,3.0,4.0,77,0.00,,,0.04,meteohub,2013-09-22 17:57:00,
2013-09-22 12:02:00,51.8,44.4,31.67,West,270,3.0,4.0,76,0.00,,,0.04,meteohub,2013-09-22 18:02:00,
2013-09-22 12:07:00,51.8,44.4,31.66,West,270,3.0,4.0,76,0.00,,,0.04,meteohub,2013-09-22 18:07:00,
2013-09-22 12:12:00,51.6,45.0,31.66,North,0,3.0,3.0,78,0.00,,,0.04,meteohub,2013-09-22 18:12:00,
2013-09-22 12:17:00,51.8,44.4,31.65,South,180,3.0,3.0,76,0.00,,,0.04,meteohub,2013-09-22 18:17:00,
2013-09-22 12:22:00,52.7,45.3,31.65,North,0,2.0,3.0,76,0.00,,,0.04,meteohub,2013-09-22 18:22:00,
2013-09-22 12:27:00,53.1,45.3,31.65,WNW,293,2.0,4.0,75,0.00,,,0.04,meteohub,2013-09-22 18:27:00,
2013-09-22 12:33:00,53.4,45.3,31.65,SW,225,2.0,4.0,74,0.00,,,0.04,meteohub,2013-09-22 18:33:00,
2013-09-22 12:38:00,53.8,45.0,31.64,NE,45,4.0,4.0,72,0.00,,,0.04,meteohub,2013-09-22 18:38:00,
2013-09-22 12:43:00,55.6,44.8,31.64,East,90,6.0,6.0,67,0.00,,,0.04,meteohub,2013-09-22 18:43:00,
2013-09-22 12:48:00,57.2,44.2,31.63,ENE,68,4.0,6.0,62,0.00,,,0.04,meteohub,2013-09-22 18:48:00,
2013-09-22 12:53:00,57.4,44.1,31.63,SE,135,5.0,8.0,61,0.00,,,0.04,meteohub,2013-09-22 18:53:00,
2013-09-22 12:58:00,57.4,44.1,31.63,SE,135,5.0,8.0,61,0.00,,,0.04,meteohub,2013-09-22 18:58:00,
2013-09-22 13:04:00,56.3,42.6,31.63,SE,135,8.0,8.0,60,0.00,,,0.04,meteohub,2013-09-22 19:04:00,
2013-09-22 13:09:00,55.0,42.6,31.63,East,90,6.0,12.0,63,0.00,,,0.04,meteohub,2013-09-22 19:09:00,
2013-09-22 13:14:00,54.7,42.3,31.62,East,90,8.0,12.0,63,0.00,,,0.04,meteohub,2013-09-22 19:14:00,
2013-09-22 13:19:00,54.5,41.7,31.62,SE,135,8.0,12.0,62,0.00,,,0.04,meteohub,2013-09-22 19:19:00,
2013-09-22 13:24:00,54.3,41.5,31.62,SE,135,7.0,11.0,62,0.00,,,0.04,meteohub,2013-09-22 19:24:00,
2013-09-22 13:30:00,54.1,42.3,31.61,East,90,7.0,11.0,64,0.00,,,0.04,meteohub,2013-09-22 19:30:00,
2013-09-22 13:35:00,53.8,42.6,31.61,East,90,7.0,11.0,66,0.00,,,0.04,meteohub,2013-09-22 19:35:00,
2013-09-22 13:40:00,53.4,43.2,31.61,SE,135,9.0,12.0,68,0.00,,,0.04,meteohub,2013-09-22 19:40:00,
2013-09-22 13:46:00,52.7,43.2,31.61,East,90,11.0,14.0,70,0.00,,,0.04,meteohub,2013-09-22 19:46:00,
2013-09-22 13:51:00,52.0,42.8,31.61,SSE,158,11.0,14.0,71,0.00,,,0.04,meteohub,2013-09-22 19:51:00,
2013-09-22 13:56:00,51.4,43.5,31.61,SE,135,5.0,14.0,74,0.00,,,0.04,meteohub,2013-09-22 19:56:00,
2013-09-22 14:01:00,51.1,43.5,31.61,South,180,10.0,13.0,75,0.00,,,0.04,meteohub,2013-09-22 20:01:00,
2013-09-22 14:06:00,51.1,43.5,31.60,South,180,10.0,11.0,75,0.00,,,0.04,meteohub,2013-09-22 20:06:00,
2013-09-22 14:12:00,50.2,43.9,31.60,NW,315,3.0,10.0,79,0.01,,,0.05,meteohub,2013-09-22 20:12:00,
2013-09-22 14:17:00,50.7,44.4,31.60,NE,45,4.0,10.0,79,0.01,,,0.05,meteohub,2013-09-22 20:17:00,
2013-09-22 14:22:00,51.1,44.4,31.60,West,270,3.0,10.0,78,0.01,,,0.05,meteohub,2013-09-22 20:22:00,
2013-09-22 14:27:00,51.1,44.1,31.59,NW,315,6.0,6.0,77,0.01,,,0.05,meteohub,2013-09-22 20:27:00,
2013-09-22 14:32:00,51.1,43.7,31.59,North,0,2.0,8.0,76,0.01,,,0.05,meteohub,2013-09-22 20:32:00,
2013-09-22 14:37:00,51.4,44.4,31.59,SW,225,6.0,8.0,77,0.01,,,0.05,meteohub,2013-09-22 20:37:00,
2013-09-22 14:42:00,51.4,43.7,31.59,East,90,4.0,8.0,75,0.01,,,0.05,meteohub,2013-09-22 20:42:00,
2013-09-22 14:47:00,51.3,43.9,31.59,NE,45,4.0,7.0,76,0.01,,,0.05,meteohub,2013-09-22 20:47:00,
2013-09-22 14:52:00,50.9,43.5,31.59,South,180,4.0,7.0,76,0.01,,,0.05,meteohub,2013-09-22 20:52:00,
2013-09-22 14:57:00,50.5,43.5,31.59,East,90,5.0,8.0,77,0.01,,,0.05,meteohub,2013-09-22 20:57:00,
2013-09-22 15:02:00,50.2,43.3,31.59,South,180,7.0,8.0,77,0.01,,,0.05,meteohub,2013-09-22 21:02:00,
2013-09-22 15:07:00,50.0,43.3,31.59,SE,135,8.0,10.0,78,0.01,,,0.05,meteohub,2013-09-22 21:07:00,
2013-09-22 15:12:00,49.5,43.5,31.59,SE,135,4.0,10.0,80,0.00,,,0.05,meteohub,2013-09-22 21:12:00,
2013-09-22 15:17:00,49.3,43.7,31.58,West,270,13.0,13.0,81,0.00,,,0.05,meteohub,2013-09-22 21:17:00,
2013-09-22 15:22:00,49.1,41.2,31.59,South,180,9.0,13.0,74,0.00,,,0.05,meteohub,2013-09-22 21:22:00,
2013-09-22 15:27:00,48.7,40.1,31.60,SE,135,15.0,15.0,72,0.00,,,0.05,meteohub,2013-09-22 21:27:00,
2013-09-22 15:32:00,46.8,38.8,31.60,SE,135,11.0,17.0,74,0.00,,,0.05,meteohub,2013-09-22 21:32:00,
2013-09-22 15:37:00,45.5,38.7,31.60,SW,225,6.0,21.0,77,0.01,,,0.06,meteohub,2013-09-22 21:37:00,
2013-09-22 15:42:00,45.0,39.2,31.60,South,180,7.0,21.0,80,0.01,,,0.06,meteohub,2013-09-22 21:42:00,
2013-09-22 15:47:00,44.8,39.4,31.60,SW,225,4.0,12.0,81,0.01,,,0.06,meteohub,2013-09-22 21:47:00,
2013-09-22 15:52:00,44.4,39.6,31.60,East,90,4.0,11.0,83,0.02,,,0.07,meteohub,2013-09-22 21:52:00,
2013-09-22 15:57:00,44.1,40.1,31.60,SE,135,2.0,8.0,86,0.02,,,0.07,meteohub,2013-09-22 21:57:00,
2013-09-22 16:02:00,44.1,40.1,31.60,SW,225,3.0,7.0,86,0.02,,,0.07,meteohub,2013-09-22 22:02:00,
2013-09-22 16:07:00,44.1,40.1,31.60,SW,225,3.0,7.0,86,0.02,,,0.07,meteohub,2013-09-22 22:07:00,
2013-09-22 16:12:00,43.9,40.8,31.60,SE,135,2.0,7.0,89,0.02,,,0.07,meteohub,2013-09-22 22:12:00,
2013-09-22 16:17:00,43.7,41.0,31.60,SE,135,3.0,7.0,90,0.02,,,0.07,meteohub,2013-09-22 22:17:00,
2013-09-22 16:22:00,43.5,41.0,31.60,SE,135,3.0,7.0,91,0.04,,,0.08,meteohub,2013-09-22 22:22:00,
2013-09-22 16:27:00,43.5,41.0,31.59,SE,135,2.0,7.0,91,0.04,,,0.08,meteohub,2013-09-22 22:27:00,
2013-09-22 16:32:00,43.5,41.0,31.59,South,180,4.0,4.0,91,0.02,,,0.08,meteohub,2013-09-22 22:32:00,
2013-09-22 16:37:00,43.3,40.8,31.58,SE,135,3.0,8.0,91,0.02,,,0.08,meteohub,2013-09-22 22:37:00,
2013-09-22 16:42:00,43.3,40.6,31.58,NE,45,2.0,8.0,90,0.02,,,0.08,meteohub,2013-09-22 22:42:00,
2013-09-22 16:47:00,43.3,40.6,31.58,SE,135,2.0,8.0,90,0.02,,,0.08,meteohub,2013-09-22 22:47:00,
2013-09-22 16:52:00,43.5,40.5,31.58,NE,45,0.0,4.0,89,0.01,,,0.08,meteohub,2013-09-22 22:52:00,
2013-09-22 16:57:00,43.5,40.5,31.58,NNE,23,4.0,4.0,89,0.01,,,0.08,meteohub,2013-09-22 22:57:00,
2013-09-22 17:02:00,43.5,40.3,31.59,SE,135,2.0,4.0,88,0.01,,,0.08,meteohub,2013-09-22 23:02:00,
2013-09-22 17:07:00,43.3,40.1,31.58,NE,45,0.0,4.0,88,0.01,,,0.08,meteohub,2013-09-22 23:07:00,
2013-09-22 17:12:00,43.3,40.1,31.58,SE,135,2.0,4.0,88,0.01,,,0.08,meteohub,2013-09-22 23:12:00,
2013-09-22 17:17:00,43.5,40.5,31.58,East,90,1.0,3.0,89,0.00,,,0.08,meteohub,2013-09-22 23:17:00,
2013-09-22 17:22:00,43.3,40.6,31.58,East,90,1.0,2.0,90,0.00,,,0.08,meteohub,2013-09-22 23:22:00,
2013-09-22 17:27:00,43.5,41.0,31.57,SE,135,2.0,2.0,91,0.01,,,0.09,meteohub,2013-09-22 23:27:00,
2013-09-22 17:32:00,43.5,41.4,31.57,East,90,2.0,4.0,92,0.01,,,0.09,meteohub,2013-09-22 23:32:00,
2013-09-22 17:37:00,43.3,41.5,31.57,WSW,248,2.0,4.0,93,0.01,,,0.09,meteohub,2013-09-22 23:37:00,
2013-09-22 17:42:00,43.3,41.7,31.57,South,180,4.0,4.0,94,0.01,,,0.09,meteohub,2013-09-22 23:42:00,
2013-09-22 17:47:00,43.2,41.5,31.56,South,180,3.0,5.0,94,0.02,,,0.11,meteohub,2013-09-22 23:47:00,
2013-09-22 17:52:00,43.2,41.9,31.55,SE,135,4.0,5.0,95,0.02,,,0.11,meteohub,2013-09-22 23:52:00,
2013-09-22 17:57:00,43.2,42.1,31.55,SE,135,4.0,5.0,96,0.02,,,0.11,meteohub,2013-09-22 23:57:00,
2013-09-22 18:02:00,43.2,42.1,31.56,SW,225,4.0,4.0,96,0.02,,,0.11,meteohub,2013-09-23 00:02:00,
2013-09-22 18:07:00,43.2,42.1,31.56,SW,225,4.0,4.0,96,0.02,,,0.00,meteohub,2013-09-23 00:07:00,
2013-09-22 18:12:00,42.6,42.4,31.55,South,180,6.0,7.0,99,0.02,,,0.00,meteohub,2013-09-23 00:12:00,
2013-09-22 18:17:00,42.6,42.4,31.55,East,90,7.0,8.0,99,0.02,,,0.00,meteohub,2013-09-23 00:17:00,
2013-09-22 18:22:00,42.4,42.3,31.55,SE,135,4.0,9.0,99,0.01,,,0.00,meteohub,2013-09-23 00:22:00,
2013-09-22 18:27:00,42.6,42.4,31.54,East,90,5.0,9.0,99,0.01,,,0.00,meteohub,2013-09-23 00:27:00,
2013-09-22 18:32:00,42.4,42.3,31.54,East,90,9.0,9.0,99,0.01,,,0.00,meteohub,2013-09-23 00:32:00,
2013-09-22 18:37:00,42.3,42.1,31.53,SE,135,3.0,9.0,99,0.01,,,0.00,meteohub,2013-09-23 00:37:00,
2013-09-22 18:42:00,42.3,42.1,31.54,East,90,4.0,9.0,99,0.00,,,0.00,meteohub,2013-09-23 00:42:00,
2013-09-22 18:47:00,42.1,41.9,31.53,East,90,4.0,9.0,99,0.00,,,0.00,meteohub,2013-09-23 00:47:00,
2013-09-22 18:52:00,41.9,41.7,31.53,SE,135,4.0,8.0,99,0.00,,,0.00,meteohub,2013-09-23 00:52:00,
2013-09-22 18:57:00,41.9,41.7,31.53,East,90,7.0,9.0,99,0.00,,,0.00,meteohub,2013-09-23 00:57:00,
2013-09-22 19:02:00,41.9,41.7,31.53,SE,135,5.0,9.0,99,0.00,,,0.00,meteohub,2013-09-23 01:02:00,
2013-09-22 19:07:00,41.7,41.5,31.52,SE,135,4.0,9.0,99,0.00,,,0.00,meteohub,2013-09-23 01:07:00,
2013-09-22 19:12:00,41.7,41.5,31.52,SE,135,3.0,8.0,99,0.00,,,0.00,meteohub,2013-09-23 01:12:00,
2013-09-22 19:17:00,41.7,41.5,31.53,SE,135,6.0,8.0,99,0.00,,,0.00,meteohub,2013-09-23 01:17:00,
2013-09-22 19:22:00,41.7,41.5,31.53,East,90,8.0,8.0,99,0.00,,,0.00,meteohub,2013-09-23 01:22:00,
2013-09-22 19:27:00,41.5,41.4,31.52,East,90,4.0,8.0,99,0.01,,,0.01,meteohub,2013-09-23 01:27:00,
2013-09-22 19:32:00,41.5,41.4,31.53,South,180,9.0,9.0,99,0.01,,,0.01,meteohub,2013-09-23 01:32:00,
2013-09-22 19:37:00,41.4,41.2,31.52,East,90,4.0,9.0,99,0.01,,,0.01,meteohub,2013-09-23 01:37:00,
2013-09-22 19:42:00,41.4,41.2,31.52,ESE,113,4.0,9.0,99,0.01,,,0.01,meteohub,2013-09-23 01:42:00,
2013-09-22 19:47:00,41.4,41.2,31.52,East,90,8.0,9.0,99,0.02,,,0.02,meteohub,2013-09-23 01:47:00,
2013-09-22 19:52:00,41.2,41.0,31.52,South,180,4.0,8.0,99,0.04,,,0.04,meteohub,2013-09-23 01:52:00,
2013-09-22 19:57:00,41.2,41.0,31.52,SE,135,6.0,8.0,99,0.06,,,0.06,meteohub,2013-09-23 01:57:00,
2013-09-22 20:02:00,41.2,41.0,31.52,SE,135,3.0,8.0,99,0.07,,,0.07,meteohub,2013-09-23 02:02:00,
2013-09-22 20:07:00,41.2,41.0,31.52,SE,135,3.0,6.0,99,0.07,,,0.07,meteohub,2013-09-23 02:07:00,
2013-09-22 20:12:00,41.0,40.8,31.51,SE,135,2.0,6.0,99,0.09,,,0.09,meteohub,2013-09-23 02:12:00,
2013-09-22 20:17:00,41.0,40.8,31.52,South,180,2.0,5.0,99,0.09,,,0.09,meteohub,2013-09-23 02:17:00,
2013-09-22 20:22:00,41.0,40.8,31.51,SE,135,2.0,5.0,99,0.11,,,0.11,meteohub,2013-09-23 02:22:00,
2013-09-22 20:27:00,41.0,40.8,31.52,South,180,1.0,3.0,99,0.09,,,0.11,meteohub,2013-09-23 02:27:00,
2013-09-22 20:32:00,40.8,40.6,31.52,West,270,2.0,3.0,99,0.11,,,0.12,meteohub,2013-09-23 02:32:00,
2013-09-22 20:37:00,40.6,40.5,31.53,SE,135,2.0,3.0,99,0.12,,,0.13,meteohub,2013-09-23 02:37:00,
2013-09-22 20:42:00,40.3,40.1,31.53,WSW,248,3.0,3.0,99,0.13,,,0.14,meteohub,2013-09-23 02:42:00,
2013-09-22 20:47:00,39.4,39.2,31.52,SW,225,1.0,4.0,99,0.13,,,0.15,meteohub,2013-09-23 02:47:00,
2013-09-22 20:52:00,38.7,38.5,31.52,NE,45,2.0,4.0,99,0.12,,,0.17,meteohub,2013-09-23 02:52:00,
2013-09-22 20:57:00,38.1,37.9,31.53,East,90,3.0,4.0,99,0.12,,,0.18,meteohub,2013-09-23 02:57:00,
2013-09-22 21:02:00,37.8,37.6,31.53,NE,45,3.0,4.0,99,0.11,,,0.18,meteohub,2013-09-23 03:02:00,
2013-09-22 21:07:00,37.8,37.6,31.53,NE,45,3.0,5.0,99,0.12,,,0.19,meteohub,2013-09-23 03:07:00,
2013-09-22 21:12:00,37.4,37.2,31.53,NE,45,3.0,5.0,99,0.09,,,0.19,meteohub,2013-09-23 03:12:00,
2013-09-22 21:17:00,37.2,36.5,31.53,NE,45,4.0,4.0,97,0.09,,,0.19,meteohub,2013-09-23 03:17:00,
2013-09-22 21:22:00,37.0,36.3,31.54,East,90,2.0,4.0,97,0.08,,,0.19,meteohub,2013-09-23 03:22:00,
2013-09-22 21:27:00,36.9,36.1,31.54,NE,45,3.0,4.0,97,0.08,,,0.19,meteohub,2013-09-23 03:27:00,
2013-09-22 21:32:00,36.7,36.0,31.54,NE,45,4.0,4.0,97,0.07,,,0.19,meteohub,2013-09-23 03:32:00,
2013-09-22 21:37:00,36.3,35.6,31.54,NE,45,2.0,4.0,97,0.06,,,0.20,meteohub,2013-09-23 03:37:00,
2013-09-22 21:42:00,36.3,35.6,31.54,NE,45,4.0,4.0,97,0.06,,,0.20,meteohub,2013-09-23 03:42:00,
2013-09-22 21:47:00,36.1,35.4,31.54,NE,45,3.0,4.0,97,0.05,,,0.20,meteohub,2013-09-23 03:47:00,
2013-09-22 21:52:00,36.1,35.4,31.55,ENE,68,4.0,4.0,97,0.04,,,0.20,meteohub,2013-09-23 03:52:00,
2013-09-22 21:57:00,36.1,35.4,31.55,SE,135,2.0,4.0,97,0.02,,,0.20,meteohub,2013-09-23 03:57:00,
2013-09-22 22:01:00,36.1,35.4,31.55,NE,45,2.0,4.0,97,0.02,,,0.20,meteohub,2013-09-23 04:01:00,
2013-09-22 22:02:00,36.1,35.4,31.54,NE,45,2.0,4.0,97,0.02,,,0.20,meteohub,2013-09-23 04:02:00,
2013-09-22 22:04:00,36.1,35.4,31.54,NE,45,2.0,4.0,97,0.02,,,0.20,meteohub,2013-09-23 04:04:00,
2013-09-22 22:05:00,36.1,35.4,31.54,NE,45,2.0,4.0,97,0.01,,,0.20,meteohub,2013-09-23 04:05:00,
2013-09-22 22:10:00,36.1,35.4,31.54,NE,45,1.0,3.0,97,0.01,,,0.20,meteohub,2013-09-23 04:10:00,
2013-09-22 22:13:00,36.1,35.4,31.54,NW,315,2.0,3.0,97,0.01,,,0.20,meteohub,2013-09-23 04:13:00,
2013-09-22 22:18:00,36.1,35.4,31.54,West,270,1.0,4.0,97,0.01,,,0.20,meteohub,2013-09-23 04:18:00,
2013-09-22 22:23:00,36.3,35.6,31.54,SW,225,0.0,4.0,97,0.01,,,0.20,meteohub,2013-09-23 04:23:00,
2013-09-22 22:28:00,36.3,35.6,31.54,SW,225,1.0,2.0,97,0.01,,,0.20,meteohub,2013-09-23 04:28:00,
2013-09-22 22:33:00,36.3,35.6,31.53,West,270,2.0,2.0,97,0.01,,,0.20,meteohub,2013-09-23 04:33:00,
2013-09-22 22:39:00,36.3,35.6,31.53,West,270,1.0,2.0,97,0.00,,,0.20,meteohub,2013-09-23 04:39:00,
2013-09-22 22:44:00,36.3,35.6,31.53,NW,315,1.0,2.0,97,0.00,,,0.20,meteohub,2013-09-23 04:44:00,
2013-09-22 22:49:00,36.3,35.6,31.52,West,270,2.0,2.0,97,0.01,,,0.21,meteohub,2013-09-23 04:49:00,
2013-09-22 22:54:00,36.3,35.6,31.53,West,270,2.0,2.0,97,0.01,,,0.21,meteohub,2013-09-23 04:54:00,
2013-09-22 22:59:00,36.5,35.8,31.52,West,270,3.0,3.0,97,0.01,,,0.21,meteohub,2013-09-23 04:59:00,
2013-09-22 23:05:00,36.3,35.6,31.52,West,270,2.0,3.0,97,0.01,,,0.21,meteohub,2013-09-23 05:05:00,
2013-09-22 23:10:00,36.3,35.6,31.51,West,270,2.0,3.0,97,0.01,,,0.21,meteohub,2013-09-23 05:10:00,
2013-09-22 23:15:00,36.3,35.6,31.51,West,270,2.0,3.0,97,0.01,,,0.21,meteohub,2013-09-23 05:15:00,
2013-09-22 23:20:00,36.3,35.6,31.52,SW,225,2.0,3.0,97,0.01,,,0.21,meteohub,2013-09-23 05:20:00,
2013-09-22 23:25:00,36.3,35.6,31.52,NW,315,3.0,3.0,97,0.01,,,0.21,meteohub,2013-09-23 05:25:00,
2013-09-22 23:30:00,36.3,35.6,31.52,West,270,2.0,3.0,97,0.01,,,0.21,meteohub,2013-09-23 05:30:00,
2013-09-22 23:36:00,36.3,35.6,31.51,SW,225,2.0,3.0,97,0.01,,,0.21,meteohub,2013-09-23 05:36:00,
2013-09-22 23:41:00,36.5,35.8,31.51,SW,225,1.0,3.0,97,0.01,,,0.21,meteohub,2013-09-23 05:41:00,
2013-09-22 23:46:00,36.5,35.8,31.51,SW,225,1.0,2.0,97,0.00,,,0.21,meteohub,2013-09-23 05:46:00,
2013-09-22 23:51:00,36.3,35.6,31.51,SW,225,0.0,2.0,97,0.00,,,0.21,meteohub,2013-09-23 05:51:00,
2013-09-22 23:56:00,36.3,35.6,31.51,SW,225,1.0,2.0,97,0.01,,,0.22,meteohub,2013-09-23 05:56:00,